Time;durP1;ratioP1;P1;durP2;ratioP2;P2;SDS_P1;SDS_P2;PMS_P1;PMS_P2;Temp;Humidity;BMP_temperature;BMP_pressure;BME280_temperature;BME280_humidity;BME280_pressure;Samples;Min_cycle;Max_cycle;Signal;HPM_P1;HPM_P2
2021/12/09 00:02:03;;;;;;;15.38;4.07;;;4.00;99.90;;;;;;5072680;28;20025;-79
2021/12/09 00:04:31;;;;;;;9.52;3.53;;;4.00;99.90;;;;;;5072888;28;20024;-79
2021/12/09 00:06:59;;;;;;;9.55;3.58;;;3.90;99.90;;;;;;5072860;28;20017;-79
2021/12/09 00:09:24;;;;;;;10.52;3.28;;;3.90;99.90;;;;;;5072677;28;20020;-79
2021/12/09 00:11:51;;;;;;;5.68;2.95;;;4.00;99.90;;;;;;5054716;28;20056;-79
2021/12/09 00:14:23;;;;;;;7.40;3.13;;;3.90;99.90;;;;;;5072232;28;20516;-78
2021/12/09 00:16:49;;;;;;;7.72;3.22;;;3.90;99.90;;;;;;5054609;28;20028;-78
2021/12/09 00:19:15;;;;;;;3.50;2.67;;;4.00;99.90;;;;;;5072919;28;20115;-78
2021/12/09 00:21:41;;;;;;;7.93;3.33;;;4.00;99.90;;;;;;5054948;28;20016;-80
2021/12/09 00:24:07;;;;;;;10.45;3.58;;;3.90;99.90;;;;;;5054072;28;20036;-79
2021/12/09 00:26:33;;;;;;;9.43;3.45;;;3.90;99.90;;;;;;5055016;28;20600;-79
2021/12/09 00:28:59;;;;;;;9.95;4.32;;;3.90;99.90;;;;;;5074355;28;20501;-78
2021/12/09 00:31:25;;;;;;;8.65;3.55;;;3.90;99.90;;;;;;5057222;28;20028;-80
2021/12/09 00:33:51;;;;;;;9.00;3.03;;;3.80;99.90;;;;;;5042530;28;20013;-80
2021/12/09 00:36:26;;;;;;;6.32;3.20;;;3.80;99.90;;;;;;5048379;28;20041;-78
2021/12/09 00:38:56;;;;;;;9.18;3.13;;;3.80;99.90;;;;;;5087436;28;20066;-79
2021/12/09 00:41:22;;;;;;;6.00;2.90;;;3.80;99.90;;;;;;5086876;28;20024;-78
2021/12/09 00:43:48;;;;;;;16.17;3.70;;;3.80;99.90;;;;;;5072859;28;20033;-75
2021/12/09 00:46:15;;;;;;;10.93;3.33;;;3.80;99.90;;;;;;5084766;28;20009;-75
2021/12/09 00:48:41;;;;;;;5.00;2.95;;;3.80;99.90;;;;;;5079589;28;20029;-74
2021/12/09 00:51:08;;;;;;;8.27;3.28;;;3.90;99.90;;;;;;5096860;28;20020;-77
2021/12/09 00:53:34;;;;;;;12.77;3.92;;;3.90;99.90;;;;;;5095536;28;20055;-75
2021/12/09 00:56:00;;;;;;;9.75;3.55;;;3.80;99.90;;;;;;5071591;28;20040;-78
2021/12/09 00:58:26;;;;;;;7.95;3.25;;;3.80;99.90;;;;;;5079399;28;20044;-78
2021/12/09 01:00:53;;;;;;;7.78;3.25;;;3.80;99.90;;;;;;5079723;28;20474;-76
2021/12/09 01:03:19;;;;;;;7.57;2.88;;;3.90;99.90;;;;;;5060961;28;20029;-78
2021/12/09 01:05:45;;;;;;;4.88;2.95;;;3.80;99.90;;;;;;5077310;28;20027;-77
2021/12/09 01:08:12;;;;;;;6.18;3.33;;;3.80;99.90;;;;;;5075300;28;20420;-78
2021/12/09 01:10:38;;;;;;;6.25;3.00;;;3.80;99.90;;;;;;5080021;28;20025;-77
2021/12/09 01:13:05;;;;;;;12.40;3.72;;;3.80;99.90;;;;;;5078294;28;20052;-78
2021/12/09 01:15:30;;;;;;;9.23;3.53;;;3.70;99.90;;;;;;5059644;28;20040;-79
2021/12/09 01:17:56;;;;;;;9.73;3.25;;;3.80;99.90;;;;;;5080497;28;20089;-79
2021/12/09 01:20:25;;;;;;;13.98;3.58;;;3.70;99.90;;;;;;5088144;28;20054;-75
2021/12/09 01:22:53;;;;;;;9.10;3.50;;;3.70;99.90;;;;;;5075066;28;20040;-76
2021/12/09 01:25:22;;;;;;;9.40;3.00;;;3.80;99.90;;;;;;5081705;28;20146;-78
2021/12/09 01:27:50;;;;;;;18.00;3.50;;;3.90;99.90;;;;;;5067462;28;20418;-78
2021/12/09 01:30:18;;;;;;;8.13;3.17;;;4.00;99.90;;;;;;5048599;28;20504;-77
2021/12/09 01:32:51;;;;;;;9.23;3.88;;;4.00;99.90;;;;;;5063985;28;20067;-78
2021/12/09 01:35:21;;;;;;;12.93;2.95;;;4.00;99.90;;;;;;5043023;28;20036;-77
2021/12/09 01:37:47;;;;;;;4.25;2.78;;;4.10;99.90;;;;;;5050011;28;20045;-78
2021/12/09 01:40:14;;;;;;;9.80;4.10;;;4.00;99.90;;;;;;5056968;28;20021;-78
2021/12/09 01:42:39;;;;;;;8.50;3.38;;;4.00;99.90;;;;;;5056409;28;20071;-78
2021/12/09 01:45:06;;;;;;;4.57;3.13;;;3.90;99.90;;;;;;5064188;28;20420;-78
2021/12/09 01:47:31;;;;;;;8.93;3.30;;;3.90;99.90;;;;;;5075938;28;20392;-79
2021/12/09 01:49:58;;;;;;;10.18;2.90;;;3.90;99.90;;;;;;5073878;28;20025;-79
2021/12/09 01:52:23;;;;;;;6.45;3.72;;;3.90;99.90;;;;;;5075409;28;20481;-77
2021/12/09 01:54:49;;;;;;;10.40;3.40;;;3.80;99.90;;;;;;5074376;28;20100;-77
2021/12/09 01:57:15;;;;;;;12.57;3.30;;;3.70;99.90;;;;;;5069889;28;20028;-78
2021/12/09 01:59:40;;;;;;;10.13;2.78;;;3.80;99.90;;;;;;5075472;28;20075;-78
2021/12/09 02:02:06;;;;;;;11.38;4.18;;;3.80;99.90;;;;;;5068340;28;20060;-78
2021/12/09 02:04:32;;;;;;;12.35;3.03;;;3.80;99.90;;;;;;5075016;28;20032;-78
2021/12/09 02:06:58;;;;;;;6.50;3.17;;;3.80;99.90;;;;;;5075087;28;20024;-79
2021/12/09 02:09:23;;;;;;;16.65;3.47;;;3.80;99.90;;;;;;5074605;28;20040;-78
2021/12/09 02:11:49;;;;;;;9.30;3.05;;;3.80;99.90;;;;;;5074202;28;20047;-78
2021/12/09 02:14:15;;;;;;;8.45;3.00;;;3.70;99.90;;;;;;5075163;28;20034;-78
2021/12/09 02:16:41;;;;;;;5.82;3.05;;;3.70;99.90;;;;;;5071679;28;20033;-79
2021/12/09 02:19:10;;;;;;;6.40;3.00;;;3.70;99.90;;;;;;5069159;28;20024;-79
2021/12/09 02:21:35;;;;;;;10.02;2.95;;;3.70;99.90;;;;;;5074922;28;20037;-78
2021/12/09 02:24:06;;;;;;;8.38;3.10;;;3.70;99.90;;;;;;5058052;28;20078;-77
2021/12/09 02:26:38;;;;;;;8.32;2.80;;;3.70;99.90;;;;;;5075041;28;20059;-78
2021/12/09 02:29:07;;;;;;;4.05;2.78;;;3.60;99.90;;;;;;5056394;28;20107;-79
2021/12/09 02:31:32;;;;;;;8.38;2.95;;;3.60;99.90;;;;;;5074721;28;20115;-78
2021/12/09 02:33:58;;;;;;;10.40;2.50;;;3.60;99.90;;;;;;5056724;28;20068;-79
2021/12/09 02:36:25;;;;;;;15.10;2.72;;;3.60;99.90;;;;;;5055964;28;20028;-77
2021/12/09 02:38:52;;;;;;;11.25;3.13;;;3.60;99.90;;;;;;5054346;28;20036;-79
2021/12/09 02:41:20;;;;;;;9.63;2.67;;;3.70;99.90;;;;;;5074422;28;20032;-78
2021/12/09 02:43:49;;;;;;;11.57;2.88;;;3.70;99.90;;;;;;5074196;28;20025;-77
2021/12/09 02:46:16;;;;;;;13.48;3.22;;;3.70;99.90;;;;;;5051180;28;20037;-78
2021/12/09 02:48:42;;;;;;;7.70;3.42;;;3.70;99.90;;;;;;5056123;28;20090;-78
2021/12/09 02:51:08;;;;;;;16.05;2.72;;;3.70;99.90;;;;;;5056070;28;20032;-78
2021/12/09 02:53:35;;;;;;;6.60;2.85;;;3.60;99.90;;;;;;5074058;28;20047;-78
2021/12/09 02:56:02;;;;;;;11.97;3.50;;;3.60;99.90;;;;;;5066873;28;20025;-78
2021/12/09 02:58:28;;;;;;;10.73;2.70;;;3.60;99.90;;;;;;5074109;28;20795;-79
2021/12/09 03:01:11;;;;;;;6.47;2.75;;;3.50;99.90;;;;;;5055845;28;20098;-78
2021/12/09 03:03:37;;;;;;;10.93;3.15;;;3.60;99.90;;;;;;5073711;28;20051;-78
2021/12/09 03:06:03;;;;;;;17.20;4.10;;;3.50;99.90;;;;;;5055009;28;20068;-78
2021/12/09 03:08:36;;;;;;;12.75;3.60;;;3.50;99.90;;;;;;5073595;28;20503;-77
2021/12/09 03:11:07;;;;;;;9.50;2.63;;;3.50;99.90;;;;;;5067207;28;20031;-80
2021/12/09 03:13:32;;;;;;;6.85;2.45;;;3.50;99.90;;;;;;5074133;28;20101;-78
2021/12/09 03:15:59;;;;;;;6.43;2.30;;;3.60;99.90;;;;;;5073643;28;20029;-78
2021/12/09 03:18:24;;;;;;;6.53;2.58;;;3.50;99.90;;;;;;5053942;28;20036;-78
2021/12/09 03:20:50;;;;;;;9.13;2.33;;;3.50;99.90;;;;;;5055504;28;20040;-78
2021/12/09 03:23:16;;;;;;;8.45;2.72;;;3.50;99.90;;;;;;5073899;28;20017;-77
2021/12/09 03:25:42;;;;;;;10.63;3.50;;;3.50;99.90;;;;;;5073869;28;20025;-78
2021/12/09 03:28:08;;;;;;;6.35;3.20;;;3.40;99.90;;;;;;5073691;28;20031;-79
2021/12/09 03:30:34;;;;;;;4.68;2.03;;;3.40;99.90;;;;;;5057711;28;20021;-76
2021/12/09 03:33:00;;;;;;;5.63;2.45;;;3.50;99.90;;;;;;5073660;28;20035;-78
2021/12/09 03:35:25;;;;;;;10.20;2.47;;;3.50;99.90;;;;;;5073812;28;20021;-78
2021/12/09 03:37:51;;;;;;;5.88;2.33;;;3.50;99.90;;;;;;5064281;28;20641;-78
2021/12/09 03:40:17;;;;;;;15.38;3.45;;;3.50;99.90;;;;;;5073708;28;20028;-78
2021/12/09 03:42:43;;;;;;;11.18;3.03;;;3.40;99.90;;;;;;5040242;28;20082;-79
2021/12/09 03:45:11;;;;;;;11.23;3.10;;;3.40;99.90;;;;;;5072610;28;20017;-78
2021/12/09 03:47:38;;;;;;;8.80;3.08;;;3.40;99.90;;;;;;5073302;28;20020;-77
2021/12/09 03:50:07;;;;;;;14.73;3.08;;;3.40;99.90;;;;;;5073459;28;20121;-77
2021/12/09 03:52:33;;;;;;;10.43;2.58;;;3.40;99.90;;;;;;5054863;28;20024;-78
2021/12/09 03:54:59;;;;;;;11.25;3.05;;;3.40;99.90;;;;;;5070817;28;20039;-76
2021/12/09 03:57:25;;;;;;;3.72;2.67;;;3.30;99.90;;;;;;5047395;28;20435;-77
2021/12/09 03:59:52;;;;;;;10.45;2.60;;;3.30;99.90;;;;;;5070247;28;20488;-78
2021/12/09 04:02:20;;;;;;;12.00;2.57;;;3.30;99.90;;;;;;5073259;28;20087;-77
2021/12/09 04:04:45;;;;;;;4.65;2.85;;;3.30;99.90;;;;;;5056157;28;20020;-77
2021/12/09 04:07:11;;;;;;;9.25;2.28;;;3.40;99.90;;;;;;5066006;28;20385;-78
2021/12/09 04:09:37;;;;;;;13.65;3.35;;;3.40;99.90;;;;;;5072661;28;20107;-78
2021/12/09 04:12:03;;;;;;;7.63;2.67;;;3.30;99.90;;;;;;5054967;28;20123;-79
2021/12/09 04:14:30;;;;;;;5.03;2.83;;;3.30;99.90;;;;;;5070471;28;20024;-78
2021/12/09 04:16:56;;;;;;;7.80;2.53;;;3.30;99.90;;;;;;5073022;28;20032;-79
2021/12/09 04:19:22;;;;;;;10.60;2.38;;;3.30;99.90;;;;;;5054310;28;20412;-78
2021/12/09 04:21:48;;;;;;;6.50;2.22;;;3.30;99.90;;;;;;5072870;28;20103;-78
2021/12/09 04:24:15;;;;;;;5.65;2.42;;;3.30;99.90;;;;;;5072701;28;20103;-77
2021/12/09 04:26:44;;;;;;;5.15;2.72;;;3.30;99.90;;;;;;5071413;28;20021;-78
2021/12/09 04:29:11;;;;;;;14.95;3.17;;;3.40;99.90;;;;;;5072503;28;20063;-77
2021/12/09 04:31:37;;;;;;;14.43;2.53;;;3.30;99.90;;;;;;5072777;28;20029;-77
2021/12/09 04:34:04;;;;;;;13.43;3.03;;;3.30;99.90;;;;;;5055315;28;20052;-77
2021/12/09 04:36:30;;;;;;;7.93;2.42;;;3.30;99.90;;;;;;5059882;28;20033;-78
2021/12/09 04:38:55;;;;;;;4.25;2.05;;;3.30;99.90;;;;;;5071891;28;20401;-77
2021/12/09 04:41:22;;;;;;;5.07;2.63;;;3.30;99.90;;;;;;5072874;28;20103;-77
2021/12/09 04:43:48;;;;;;;7.68;2.35;;;3.20;99.90;;;;;;5072230;28;20025;-78
2021/12/09 04:46:14;;;;;;;6.35;2.75;;;3.20;99.90;;;;;;5054742;28;20039;-78
2021/12/09 04:48:41;;;;;;;7.00;2.55;;;3.20;99.90;;;;;;5072812;28;20044;-78
2021/12/09 04:51:07;;;;;;;16.38;2.47;;;3.30;99.90;;;;;;5072820;28;20020;-78
2021/12/09 04:53:33;;;;;;;10.93;2.75;;;3.30;99.90;;;;;;5072653;28;20033;-77
2021/12/09 04:55:59;;;;;;;4.93;2.63;;;3.30;99.90;;;;;;5070895;28;20043;-77
2021/12/09 04:58:26;;;;;;;5.28;2.25;;;3.20;99.90;;;;;;5054802;28;20033;-78
2021/12/09 05:00:54;;;;;;;8.75;2.60;;;3.20;99.90;;;;;;5072112;28;20136;-78
2021/12/09 05:03:20;;;;;;;12.90;2.55;;;3.20;99.90;;;;;;5070959;28;20052;-76
2021/12/09 05:05:49;;;;;;;10.90;2.80;;;3.20;99.90;;;;;;5054342;28;20067;-77
2021/12/09 05:08:16;;;;;;;5.35;2.20;;;3.20;99.90;;;;;;5072532;28;20024;-78
2021/12/09 05:11:05;;;;;;;10.68;2.00;;;3.20;99.90;;;;;;5054848;28;20393;-77
2021/12/09 05:13:35;;;;;;;9.82;3.03;;;3.20;99.90;;;;;;5060853;28;20564;-78
2021/12/09 05:16:02;;;;;;;10.88;2.42;;;3.20;99.90;;;;;;5054300;28;20028;-77
2021/12/09 05:18:31;;;;;;;6.70;2.67;;;3.20;99.90;;;;;;5073071;28;20028;-78
2021/12/09 05:20:57;;;;;;;7.78;2.72;;;3.20;99.90;;;;;;5072174;28;20079;-77
2021/12/09 05:23:24;;;;;;;6.60;2.78;;;3.20;99.90;;;;;;5070404;28;20115;-77
2021/12/09 05:25:50;;;;;;;6.60;2.08;;;3.20;99.90;;;;;;5072542;28;20492;-78
2021/12/09 05:28:17;;;;;;;5.05;2.67;;;3.20;99.90;;;;;;5072590;28;20060;-79
2021/12/09 05:33:28;;;;;;;5.68;2.35;;;3.20;99.90;;;;;;5072643;28;20048;-78
2021/12/09 05:35:55;;;;;;;5.30;2.42;;;3.20;99.90;;;;;;5054664;28;20032;-78
2021/12/09 05:38:21;;;;;;;5.40;2.30;;;3.20;99.90;;;;;;5072479;28;20044;-78
2021/12/09 05:40:47;;;;;;;8.00;1.92;;;3.10;99.90;;;;;;5054258;28;20438;-78
2021/12/09 05:43:15;;;;;;;10.25;2.47;;;3.10;99.90;;;;;;5072298;28;20469;-77
2021/12/09 05:45:41;;;;;;;10.80;3.05;;;3.10;99.90;;;;;;5074843;28;20025;-78
2021/12/09 05:48:07;;;;;;;4.93;2.53;;;3.10;99.90;;;;;;5072823;28;20029;-78
2021/12/09 05:50:34;;;;;;;4.93;2.17;;;3.10;99.90;;;;;;5075776;28;20029;-78
2021/12/09 05:53:00;;;;;;;4.53;2.58;;;3.10;99.90;;;;;;5075596;28;20114;-78
2021/12/09 05:55:26;;;;;;;7.72;2.42;;;3.10;99.90;;;;;;5075283;28;20461;-79
2021/12/09 05:57:51;;;;;;;5.43;2.35;;;3.10;99.90;;;;;;5073351;28;20059;-78
2021/12/09 06:00:18;;;;;;;6.82;2.65;;;3.10;99.90;;;;;;5068570;28;20393;-79
2021/12/09 06:02:44;;;;;;;7.88;2.30;;;3.10;99.90;;;;;;5075045;28;20446;-78
2021/12/09 06:05:10;;;;;;;8.05;2.05;;;3.20;99.90;;;;;;5074890;28;20108;-76
2021/12/09 06:07:37;;;;;;;9.35;3.00;;;3.10;99.90;;;;;;5075408;28;20028;-78
2021/12/09 06:10:05;;;;;;;8.60;2.03;;;3.10;99.90;;;;;;5074909;28;20043;-78
2021/12/09 06:12:31;;;;;;;14.38;2.33;;;3.20;99.90;;;;;;5057287;28;20509;-76
2021/12/09 06:14:57;;;;;;;5.60;2.65;;;3.20;99.90;;;;;;5074854;28;20040;-78
2021/12/09 06:17:23;;;;;;;10.75;2.03;;;3.10;99.90;;;;;;5074529;28;20393;-78
2021/12/09 06:19:48;;;;;;;7.15;2.28;;;3.20;99.90;;;;;;5056491;28;20408;-78
2021/12/09 06:22:14;;;;;;;6.43;2.03;;;3.10;99.90;;;;;;5065174;28;20017;-79
2021/12/09 06:24:41;;;;;;;9.30;2.40;;;3.10;99.90;;;;;;5056965;28;20021;-76
2021/12/09 06:27:07;;;;;;;15.25;2.67;;;3.10;99.90;;;;;;5074957;28;20025;-78
2021/12/09 06:29:34;;;;;;;6.50;2.15;;;3.00;99.90;;;;;;5074874;28;20032;-78
2021/12/09 06:32:00;;;;;;;9.25;2.22;;;3.00;99.90;;;;;;5067207;28;20032;-79
2021/12/09 06:34:26;;;;;;;8.50;2.22;;;3.00;99.90;;;;;;5054958;28;20554;-76
2021/12/09 06:36:52;;;;;;;6.55;2.42;;;3.00;99.90;;;;;;5055869;28;20061;-78
2021/12/09 06:39:18;;;;;;;7.43;3.08;;;3.00;99.90;;;;;;5056334;28;20433;-76
2021/12/09 06:41:44;;;;;;;5.13;2.03;;;3.00;99.90;;;;;;5074315;28;20036;-78
2021/12/09 06:44:10;;;;;;;3.65;1.83;;;3.00;99.90;;;;;;5055883;28;20032;-79
2021/12/09 06:46:36;;;;;;;8.07;2.00;;;3.00;99.90;;;;;;5055997;28;20094;-79
2021/12/09 06:49:04;;;;;;;7.22;2.70;;;3.00;99.90;;;;;;5055632;28;20045;-78
2021/12/09 06:51:29;;;;;;;8.20;2.07;;;3.00;99.90;;;;;;5074164;28;20032;-78
2021/12/09 06:53:56;;;;;;;12.40;2.20;;;3.00;99.90;;;;;;5074447;28;20373;-78
2021/12/09 06:56:23;;;;;;;8.52;2.33;;;3.00;99.90;;;;;;5051342;28;20127;-78
2021/12/09 06:58:49;;;;;;;17.00;2.10;;;3.00;99.90;;;;;;5072371;28;20043;-79
2021/12/09 07:01:15;;;;;;;6.53;2.33;;;3.00;99.90;;;;;;5055447;28;20101;-78
2021/12/09 07:03:41;;;;;;;3.08;2.15;;;3.00;99.90;;;;;;5073621;28;20025;-79
2021/12/09 07:06:11;;;;;;;8.15;2.28;;;3.00;99.90;;;;;;5064628;28;20017;-78
2021/12/09 07:08:44;;;;;;;13.77;3.33;;;3.00;99.90;;;;;;5055818;28;20055;-76
2021/12/09 07:11:09;;;;;;;9.32;2.88;;;3.00;99.90;;;;;;5052767;28;20032;-77
2021/12/09 07:13:35;;;;;;;8.05;3.13;;;3.00;99.90;;;;;;5073718;28;20389;-77
2021/12/09 07:16:01;;;;;;;4.38;2.10;;;3.00;99.90;;;;;;5055667;28;20025;-77
2021/12/09 07:18:27;;;;;;;11.18;2.72;;;3.00;99.90;;;;;;5073871;28;20033;-78
2021/12/09 07:20:53;;;;;;;8.50;2.13;;;2.90;99.90;;;;;;5053263;28;20027;-76
2021/12/09 07:23:19;;;;;;;13.30;2.30;;;2.90;99.90;;;;;;5072960;28;20528;-78
2021/12/09 07:25:45;;;;;;;6.57;2.70;;;3.00;99.90;;;;;;5073471;28;20051;-78
2021/12/09 07:28:11;;;;;;;6.82;2.67;;;3.00;99.90;;;;;;5055534;28;20028;-78
2021/12/09 07:30:36;;;;;;;6.25;2.63;;;3.00;99.90;;;;;;5073929;28;20031;-77
2021/12/09 07:33:02;;;;;;;12.20;2.90;;;3.00;99.90;;;;;;5073687;28;20028;-77
2021/12/09 07:35:30;;;;;;;10.60;2.85;;;3.00;99.90;;;;;;5073690;28;20473;-77
2021/12/09 07:37:57;;;;;;;9.43;2.53;;;3.00;99.90;;;;;;5070393;28;20021;-77
2021/12/09 07:40:23;;;;;;;12.73;2.97;;;3.00;99.90;;;;;;5073262;28;20245;-78
2021/12/09 07:42:49;;;;;;;11.18;3.05;;;3.00;99.90;;;;;;5055700;28;20023;-77
2021/12/09 07:45:16;;;;;;;8.35;2.88;;;3.00;99.90;;;;;;5071374;28;20025;-78
2021/12/09 07:47:43;;;;;;;8.93;4.13;;;3.00;99.90;;;;;;5073330;28;20032;-78
2021/12/09 07:50:13;;;;;;;14.85;4.10;;;3.00;99.90;;;;;;5073046;28;20032;-78
2021/12/09 07:52:43;;;;;;;9.85;3.92;;;3.10;99.90;;;;;;5072601;28;20043;-75
2021/12/09 07:55:11;;;;;;;10.55;3.88;;;3.20;99.90;;;;;;5054269;28;20672;-78
2021/12/09 07:57:37;;;;;;;6.63;2.42;;;3.30;99.90;;;;;;5072829;28;20047;-78
2021/12/09 08:00:06;;;;;;;9.63;2.75;;;3.40;99.90;;;;;;5072312;28;20043;-77
2021/12/09 08:02:32;;;;;;;7.95;3.15;;;3.50;99.90;;;;;;5072784;28;20043;-76
2021/12/09 08:04:57;;;;;;;6.45;3.00;;;3.50;99.90;;;;;;5072877;28;20111;-78
2021/12/09 08:07:24;;;;;;;11.57;3.10;;;3.60;99.90;;;;;;5071615;28;20028;-77
2021/12/09 08:09:51;;;;;;;13.38;2.92;;;3.60;99.90;;;;;;5053663;28;20128;-78
2021/12/09 08:12:17;;;;;;;14.85;2.85;;;3.70;99.90;;;;;;5072249;28;20031;-77
2021/12/09 08:14:43;;;;;;;6.97;2.88;;;3.70;99.90;;;;;;5072032;28;20028;-77
2021/12/09 08:17:23;;;;;;;3.85;2.63;;;3.80;99.90;;;;;;5071968;28;20043;-78
2021/12/09 08:19:49;;;;;;;5.30;1.85;;;3.80;99.90;;;;;;5064214;28;20039;-79
2021/12/09 08:22:15;;;;;;;8.65;3.20;;;3.80;99.90;;;;;;5054668;28;20028;-79
2021/12/09 08:24:41;;;;;;;14.77;3.75;;;3.80;99.90;;;;;;5057686;28;20039;-79
2021/12/09 08:27:07;;;;;;;20.95;3.38;;;3.80;99.90;;;;;;5072103;28;20020;-78
2021/12/09 08:29:33;;;;;;;6.40;2.90;;;3.80;99.90;;;;;;5054028;28;20025;-79
2021/12/09 08:31:58;;;;;;;15.20;3.30;;;3.90;99.90;;;;;;5071630;28;20032;-78
2021/12/09 08:34:24;;;;;;;5.03;2.65;;;3.90;99.90;;;;;;5062937;28;20110;-78
2021/12/09 08:36:50;;;;;;;13.43;2.70;;;4.00;99.90;;;;;;5067867;28;20024;-78
2021/12/09 08:39:16;;;;;;;4.35;2.55;;;3.90;99.90;;;;;;5072270;28;20059;-79
2021/12/09 08:41:44;;;;;;;10.82;3.72;;;3.90;99.90;;;;;;5051425;28;20485;-78
2021/12/09 08:44:10;;;;;;;7.03;2.72;;;4.00;99.90;;;;;;5072300;28;20027;-79
2021/12/09 08:46:36;;;;;;;19.27;4.72;;;4.00;99.90;;;;;;5072732;28;20029;-78
2021/12/09 08:49:03;;;;;;;7.47;3.15;;;4.10;99.90;;;;;;5065684;28;20095;-78
2021/12/09 08:51:29;;;;;;;12.85;3.22;;;4.10;99.90;;;;;;5052755;28;20029;-79
2021/12/09 08:53:57;;;;;;;13.90;4.20;;;4.10;99.90;;;;;;5070654;28;20032;-78
2021/12/09 08:56:23;;;;;;;8.60;3.63;;;4.20;99.90;;;;;;5054276;28;20458;-77
2021/12/09 08:58:48;;;;;;;6.05;3.53;;;4.20;99.90;;;;;;5052887;28;20017;-79
2021/12/09 09:01:32;;;;;;;12.18;3.65;;;4.30;99.90;;;;;;5054245;28;20037;-78
2021/12/09 09:03:58;;;;;;;13.23;3.95;;;4.50;99.90;;;;;;5067925;28;20025;-79
2021/12/09 09:06:24;;;;;;;15.75;4.32;;;4.50;99.90;;;;;;5065008;28;20025;-78
2021/12/09 09:08:55;;;;;;;9.43;4.03;;;4.60;99.90;;;;;;5072690;28;20038;-77
2021/12/09 09:11:20;;;;;;;13.82;5.10;;;4.60;99.90;;;;;;5062180;28;20540;-79
2021/12/09 09:13:46;;;;;;;12.55;4.70;;;4.70;99.90;;;;;;5077508;28;20040;-77
2021/12/09 09:16:11;;;;;;;9.90;3.97;;;4.60;99.90;;;;;;5066646;28;20032;-77
2021/12/09 09:18:37;;;;;;;6.65;3.63;;;4.70;99.90;;;;;;5092539;28;20009;-77
2021/12/09 09:21:03;;;;;;;8.48;3.65;;;4.70;99.90;;;;;;5072495;28;20044;-79
2021/12/09 09:23:28;;;;;;;13.52;4.47;;;4.70;99.90;;;;;;5056445;28;20054;-78
2021/12/09 09:25:54;;;;;;;10.70;4.53;;;4.70;99.90;;;;;;5052868;28;20075;-78
2021/12/09 09:28:20;;;;;;;18.25;4.72;;;4.80;99.90;;;;;;5080230;28;20493;-74
2021/12/09 09:30:56;;;;;;;16.80;4.13;;;4.90;99.90;;;;;;5097962;28;20041;-76
2021/12/09 09:33:25;;;;;;;15.65;4.85;;;5.00;99.90;;;;;;5081280;28;20032;-78
2021/12/09 09:35:51;;;;;;;9.45;5.07;;;5.10;99.90;;;;;;5097316;28;20017;-77
2021/12/09 09:38:19;;;;;;;10.55;4.35;;;5.20;99.90;;;;;;5101421;28;20104;-76
2021/12/09 09:40:51;;;;;;;13.88;4.15;;;5.30;99.90;;;;;;5083944;28;20025;-76
2021/12/09 09:43:30;;;;;;;21.75;4.85;;;5.40;99.90;;;;;;5083910;28;20017;-73
2021/12/09 09:46:00;;;;;;;8.73;4.50;;;5.50;99.90;;;;;;5081433;28;20040;-76
2021/12/09 09:48:26;;;;;;;12.48;6.05;;;5.60;99.90;;;;;;5086652;28;20013;-76
2021/12/09 09:50:52;;;;;;;12.23;5.30;;;5.50;99.90;;;;;;5100616;28;20043;-77
2021/12/09 09:53:18;;;;;;;10.65;5.13;;;5.50;99.90;;;;;;5099627;28;20036;-73
2021/12/09 09:55:47;;;;;;;15.15;6.60;;;5.60;99.90;;;;;;5100016;28;20009;-77
2021/12/09 09:58:14;;;;;;;13.45;5.60;;;5.60;99.90;;;;;;5100286;28;20032;-78
2021/12/09 10:00:40;;;;;;;20.63;6.50;;;5.60;99.90;;;;;;5099212;28;20151;-75
2021/12/09 10:03:10;;;;;;;15.30;5.85;;;5.60;99.90;;;;;;5090209;28;20032;-80
2021/12/09 10:05:38;;;;;;;21.20;6.50;;;5.60;99.90;;;;;;5082148;28;20137;-79
2021/12/09 10:08:06;;;;;;;15.70;6.10;;;5.60;99.90;;;;;;5079709;28;20035;-79
2021/12/09 10:10:32;;;;;;;19.92;6.15;;;5.50;99.90;;;;;;5077259;28;20033;-80
2021/12/09 10:13:05;;;;;;;14.40;6.05;;;5.50;99.90;;;;;;5076244;28;20059;-78
2021/12/09 10:15:46;;;;;;;16.80;5.88;;;5.50;99.90;;;;;;5055976;28;20035;-78
2021/12/09 10:18:29;;;;;;;14.23;6.13;;;5.50;99.90;;;;;;5038839;28;20115;-79
2021/12/09 10:20:55;;;;;;;13.13;6.55;;;5.50;99.90;;;;;;5061316;28;20096;-80
2021/12/09 10:23:23;;;;;;;10.18;5.22;;;5.60;99.90;;;;;;5074398;28;20113;-78
2021/12/09 10:26:19;;;;;;;20.90;6.75;;;5.60;99.90;;;;;;5061201;28;20390;-79
2021/12/09 10:28:51;;;;;;;20.00;7.25;;;5.70;99.90;;;;;;5057966;28;20162;-79
2021/12/09 10:31:24;;;;;;;27.70;7.80;;;5.80;99.90;;;;;;5056180;28;20032;-76
2021/12/09 10:34:20;;;;;;;28.27;7.07;;;5.80;99.90;;;;;;5065306;28;20032;-78
2021/12/09 10:36:48;;;;;;;15.52;6.55;;;5.90;99.90;;;;;;5074764;28;20094;-79
2021/12/09 10:39:27;;;;;;;18.88;7.45;;;5.90;99.90;;;;;;5074224;28;20020;-78
2021/12/09 10:41:54;;;;;;;18.80;6.90;;;6.00;99.90;;;;;;5075056;28;20029;-79
2021/12/09 10:44:34;;;;;;;15.38;7.93;;;6.00;99.90;;;;;;5070318;28;20380;-78
2021/12/09 10:47:12;;;;;;;21.20;8.45;;;6.10;99.90;;;;;;5074596;28;20393;-76
2021/12/09 10:50:05;;;;;;;14.75;7.35;;;6.20;99.90;;;;;;5070877;28;20027;-78
2021/12/09 10:52:40;;;;;;;17.77;8.15;;;6.20;99.90;;;;;;5055428;28;20074;-78
2021/12/09 10:55:15;;;;;;;23.05;9.98;;;6.40;99.90;;;;;;5073034;28;20081;-77
2021/12/09 10:57:41;;;;;;;24.00;8.38;;;6.50;99.90;;;;;;5055698;28;20516;-77
2021/12/09 11:00:15;;;;;;;19.65;8.88;;;6.50;99.90;;;;;;5074704;28;20031;-78
2021/12/09 11:03:01;;;;;;;22.05;9.50;;;6.30;99.90;;;;;;5073724;28;20404;-79
2021/12/09 11:05:28;;;;;;;30.80;8.85;;;6.30;99.90;;;;;;5053959;28;20033;-78
2021/12/09 11:07:54;;;;;;;19.17;8.98;;;6.30;99.90;;;;;;5055741;28;20024;-79
2021/12/09 11:10:23;;;;;;;22.77;13.77;;;6.20;99.90;;;;;;5074277;28;20496;-78
2021/12/09 11:12:58;;;;;;;22.85;8.77;;;6.30;99.90;;;;;;5056947;28;20123;-78
2021/12/09 11:15:46;;;;;;;22.92;9.35;;;6.30;99.90;;;;;;5052725;28;20029;-78
2021/12/09 11:18:39;;;;;;;26.65;9.40;;;6.30;99.90;;;;;;5056227;28;20037;-79
2021/12/09 11:21:31;;;;;;;15.07;8.55;;;6.40;99.90;;;;;;5074535;28;20028;-77
2021/12/09 11:24:26;;;;;;;23.23;8.40;;;6.30;99.90;;;;;;5074681;28;20063;-79
2021/12/09 11:26:59;;;;;;;17.65;8.52;;;6.40;99.90;;;;;;5072102;28;20123;-77
2021/12/09 11:29:39;;;;;;;17.42;9.18;;;6.40;99.90;;;;;;5052920;28;20387;-78
2021/12/09 11:32:48;;;;;;;21.35;9.52;;;6.40;99.90;;;;;;5054701;28;20060;-77
2021/12/09 11:35:24;;;;;;;22.00;10.05;;;6.40;99.90;;;;;;5054884;28;20116;-77
2021/12/09 11:41:07;;;;;;;20.60;8.68;;;6.40;99.90;;;;;;5074231;28;20036;-78
2021/12/09 11:43:12;;;;;;;17.55;9.40;;;6.30;99.90;;;;;;5057306;28;20033;-79
2021/12/09 11:45:42;;;;;;;17.23;9.50;;;6.40;99.90;;;;;;5056201;28;20036;-77
2021/12/09 11:48:10;;;;;;;18.92;10.00;;;6.40;99.90;;;;;;5058691;28;20439;-76
2021/12/09 11:50:39;;;;;;;21.40;9.32;;;6.40;99.90;;;;;;5053073;28;20075;-78
2021/12/09 11:53:08;;;;;;;16.63;9.43;;;6.40;99.90;;;;;;5054170;28;20024;-78
2021/12/09 11:55:42;;;;;;;23.95;9.18;;;6.40;99.90;;;;;;5053860;28;20024;-77
2021/12/09 12:07:13;;;;;;;20.65;9.60;;;6.50;99.90;;;;;;5061901;28;20044;-78
2021/12/09 12:20:55;;;;;;;29.60;10.35;;;6.50;99.90;;;;;;5074347;28;20377;-77
2021/12/09 12:23:29;;;;;;;22.80;10.45;;;6.50;99.90;;;;;;5073521;28;20481;-78
2021/12/09 12:42:27;;;;;;;22.63;10.23;;;6.70;99.90;;;;;;5053565;28;20068;-77
2021/12/09 12:45:21;;;;;;;23.45;11.25;;;6.70;99.90;;;;;;5053261;28;20099;-79
2021/12/09 12:47:58;;;;;;;25.30;10.80;;;6.90;99.90;;;;;;5057980;28;20013;-78
2021/12/09 12:50:24;;;;;;;18.30;10.43;;;7.00;99.90;;;;;;5073854;28;20020;-78
2021/12/09 12:52:51;;;;;;;22.08;10.88;;;7.00;99.90;;;;;;5054973;28;20500;-77
2021/12/09 12:55:25;;;;;;;17.58;9.60;;;7.00;99.90;;;;;;5074832;28;20032;-78
2021/12/09 12:57:53;;;;;;;20.95;10.90;;;7.00;99.90;;;;;;5059204;28;20124;-79
2021/12/09 13:00:28;;;;;;;26.35;10.75;;;7.00;99.90;;;;;;5061946;28;20036;-78
2021/12/09 13:13:33;;;;;;;24.08;10.18;;;6.90;99.90;;;;;;5077152;28;20028;-78
2021/12/09 13:16:37;;;;;;;26.30;10.57;;;6.90;99.90;;;;;;5076678;28;20048;-77
2021/12/09 13:21:53;;;;;;;22.97;9.97;;;6.80;99.90;;;;;;5076975;28;20108;-78
2021/12/09 13:24:19;;;;;;;36.40;11.88;;;6.80;99.90;;;;;;5058787;28;20032;-78
2021/12/09 13:30:21;;;;;;;26.30;10.32;;;6.80;99.90;;;;;;5077126;28;20064;-77
2021/12/09 13:46:26;;;;;;;24.38;10.98;;;6.80;99.90;;;;;;5059417;28;20064;-78
2021/12/09 13:49:21;;;;;;;22.45;9.88;;;6.70;99.90;;;;;;5060767;28;20032;-78
2021/12/09 13:54:25;;;;;;;23.98;10.73;;;6.80;99.90;;;;;;5073602;28;20085;-77
2021/12/09 13:56:56;;;;;;;19.50;10.18;;;6.70;99.90;;;;;;5076754;28;20220;-78
2021/12/09 13:59:23;;;;;;;22.02;10.48;;;6.70;99.90;;;;;;5074637;28;20432;-77
2021/12/09 14:01:51;;;;;;;31.50;11.02;;;6.70;99.90;;;;;;5075932;28;20497;-77
2021/12/09 14:04:20;;;;;;;25.50;11.35;;;6.70;99.90;;;;;;5075891;28;20507;-77
2021/12/09 14:07:02;;;;;;;19.35;10.57;;;6.70;99.90;;;;;;5055979;28;20025;-77
2021/12/09 14:09:29;;;;;;;31.75;11.77;;;6.70;99.90;;;;;;5055904;28;20025;-78
2021/12/09 14:11:55;;;;;;;25.23;11.60;;;6.80;99.90;;;;;;5060823;28;20046;-78
2021/12/09 14:14:39;;;;;;;24.55;10.90;;;6.80;99.90;;;;;;5075797;28;20055;-77